Time;durP1;ratioP1;P1;durP2;ratioP2;P2;SDS_P1;SDS_P2;PMS_P1;PMS_P2;Temp;Humidity;BMP_temperature;BMP_pressure;BME280_temperature;BME280_humidity;BME280_pressure;Samples;Min_cycle;Max_cycle;Signal;HPM_P1;HPM_P2
2021/03/21 04:06:19;;;;;;;13.20;8.73;;;;;;;-1.52;100.00;100177.42;1753720;76;21088;-61
2021/03/21 04:08:54;;;;;;;11.45;8.25;;;;;;;-1.56;100.00;100178.09;1823193;77;21001;-60
2021/03/21 04:11:44;;;;;;;12.03;8.00;;;;;;;-1.56;100.00;100174.73;1763691;79;21076;-64
2021/03/21 04:14:17;;;;;;;13.15;9.30;;;;;;;-1.51;100.00;100177.33;1691510;84;21211;-61
2021/03/21 04:16:56;;;;;;;13.10;9.28;;;;;;;-1.41;100.00;100171.56;1786375;78;21365;-60
2021/03/21 04:19:27;;;;;;;13.00;9.20;;;;;;;-1.25;100.00;100178.05;1822692;77;21564;-61
2021/03/21 04:21:58;;;;;;;13.98;9.43;;;;;;;-0.87;100.00;100180.88;1764031;78;21061;-61
2021/03/21 04:24:51;;;;;;;13.88;9.60;;;;;;;-0.70;100.00;100180.10;1820629;77;21112;-62
2021/03/21 04:27:28;;;;;;;14.45;9.53;;;;;;;-0.61;100.00;100181.97;1822626;77;21191;-61
2021/03/21 04:30:14;;;;;;;18.05;10.13;;;;;;;-0.53;100.00;100184.78;1818784;77;21136;-62
2021/03/21 04:32:48;;;;;;;17.27;9.80;;;;;;;-0.47;100.00;100177.13;1760655;79;21049;-61
2021/03/21 04:35:40;;;;;;;14.83;11.25;;;;;;;-0.41;100.00;100177.96;1822410;77;20986;-61
2021/03/21 04:38:31;;;;;;;14.05;10.00;;;;;;;-0.28;100.00;100183.78;1822293;77;21084;-61
2021/03/21 04:40:59;;;;;;;14.05;10.38;;;;;;;-0.14;100.00;100184.03;1821666;78;21197;-62
2021/03/21 04:43:44;;;;;;;14.58;9.35;;;;;;;-0.10;100.00;100184.95;1788025;78;21096;-65
2021/03/21 04:46:20;;;;;;;17.15;11.50;;;;;;;-0.05;100.00;100188.45;1822147;78;21017;-61
2021/03/21 04:48:52;;;;;;;13.28;10.10;;;;;;;0.01;100.00;100180.78;1815920;78;21038;-62
2021/03/21 04:51:25;;;;;;;13.68;10.18;;;;;;;0.05;100.00;100191.95;1782257;78;22279;-65
2021/03/21 04:54:17;;;;;;;14.33;9.95;;;;;;;0.07;100.00;100193.91;1784702;80;22246;-63
2021/03/21 04:57:40;;;;;;;13.00;9.58;;;;;;;0.15;100.00;100195.89;1810824;77;21059;-62
2021/03/21 05:00:26;;;;;;;15.20;10.50;;;;;;;0.26;100.00;100198.45;1748133;80;21014;-65
2021/03/21 05:03:00;;;;;;;13.53;10.28;;;;;;;0.31;100.00;100197.64;1802523;78;21069;-62
2021/03/21 05:05:32;;;;;;;14.15;10.03;;;;;;;0.33;100.00;100198.80;1801395;77;21125;-61
2021/03/21 05:08:25;;;;;;;14.28;10.40;;;;;;;0.39;100.00;100200.90;1787848;78;21145;-63
2021/03/21 05:10:58;;;;;;;12.82;9.65;;;;;;;0.43;100.00;100208.23;1812880;78;21571;-62
2021/03/21 05:13:55;;;;;;;12.55;9.33;;;;;;;0.50;100.00;100208.58;1736699;81;21089;-62
2021/03/21 05:16:39;;;;;;;12.78;9.50;;;;;;;0.65;100.00;100206.56;1729752;81;21618;-63
2021/03/21 05:19:30;;;;;;;13.88;10.48;;;;;;;0.78;100.00;100202.09;1685136;83;21121;-66
2021/03/21 05:22:10;;;;;;;14.83;10.93;;;;;;;0.83;100.00;100206.84;1724190;81;21417;-63
2021/03/21 05:24:43;;;;;;;13.05;10.00;;;;;;;0.85;100.00;100202.42;1706121;81;21148;-63
2021/03/21 05:27:17;;;;;;;15.88;11.57;;;;;;;0.95;100.00;100204.61;1742562;81;21245;-64
2021/03/21 05:29:53;;;;;;;13.65;9.43;;;;;;;1.20;100.00;100204.25;1746857;81;21153;-62
2021/03/21 05:32:22;;;;;;;16.30;11.73;;;;;;;1.63;100.00;100199.92;1735270;81;21141;-65
2021/03/21 05:34:54;;;;;;;13.55;10.13;;;;;;;2.01;100.00;100201.05;1744978;80;21231;-62
2021/03/21 05:38:04;;;;;;;14.18;10.15;;;;;;;2.37;100.00;100204.85;1725499;81;21161;-61
2021/03/21 05:41:13;;;;;;;14.25;10.30;;;;;;;2.72;100.00;100199.70;1742941;81;21128;-63
2021/03/21 05:44:06;;;;;;;12.55;9.25;;;;;;;3.08;100.00;100199.53;1637489;86;21256;-60
2021/03/21 05:46:57;;;;;;;14.20;10.05;;;;;;;3.37;100.00;100196.91;1707783;81;21078;-60
2021/03/21 05:49:40;;;;;;;13.78;10.00;;;;;;;3.58;100.00;100196.27;1711726;82;21398;-61
2021/03/21 05:52:37;;;;;;;12.63;9.33;;;;;;;3.73;100.00;100193.26;1739831;81;21156;-62
2021/03/21 05:55:43;;;;;;;13.90;9.90;;;;;;;3.84;100.00;100194.38;1746643;80;21196;-64
2021/03/21 05:58:38;;;;;;;13.25;9.53;;;;;;;3.92;100.00;100191.91;1739829;80;21226;-61
2021/03/21 06:01:52;;;;;;;12.30;9.00;;;;;;;4.04;100.00;100192.05;1731206;81;20998;-65
2021/03/21 06:05:00;;;;;;;14.70;9.48;;;;;;;4.23;100.00;100198.89;1744541;81;21210;-61
2021/03/21 06:07:49;;;;;;;10.35;8.28;;;;;;;4.41;100.00;100198.13;1727565;81;21184;-59
2021/03/21 06:10:40;;;;;;;10.70;8.50;;;;;;;4.67;100.00;100201.64;1732807;81;21204;-60
2021/03/21 06:13:25;;;;;;;11.03;9.25;;;;;;;5.02;100.00;100203.91;1737671;80;21166;-62
2021/03/21 06:16:26;;;;;;;10.90;9.05;;;;;;;5.34;100.00;100205.92;1717538;82;21220;-61
2021/03/21 06:19:30;;;;;;;11.53;8.20;;;;;;;5.66;100.00;100195.01;1700778;83;22153;-61
2021/03/21 06:22:11;;;;;;;10.43;8.03;;;;;;;5.93;100.00;100196.64;1703113;83;21278;-60
2021/03/21 06:25:02;;;;;;;;;;;;;;;6.27;100.00;100195.81;1708278;82;21408;-61
2021/03/21 06:28:13;;;;;;;11.17;7.97;;;;;;;6.76;100.00;100197.23;1701725;82;20232;-60
2021/03/21 06:31:30;;;;;;;16.53;13.67;;;;;;;7.14;100.00;100188.53;1696169;83;21505;-63
2021/03/21 06:34:40;;;;;;;9.23;7.43;;;;;;;7.63;100.00;100194.97;1702979;82;22363;-60
2021/03/21 06:41:07;;;;;;;10.50;7.27;;;;;;;9.13;100.00;100182.20;1819042;77;23453;-60
2021/03/21 06:47:29;;;;;;;8.27;6.97;;;;;;;10.26;100.00;100169.00;1679035;83;21316;-64
2021/03/21 06:50:37;;;;;;;8.50;6.70;;;;;;;10.95;100.00;100169.83;1708517;80;21052;-63
2021/03/21 06:53:25;;;;;;;8.57;6.10;;;;;;;11.33;98.57;100157.28;1718458;80;21608;-62
2021/03/21 06:55:56;;;;;;;7.70;6.20;;;;;;;11.68;88.89;100157.30;1716671;80;21077;-61
2021/03/21 06:59:03;;;;;;;8.70;6.20;;;;;;;12.01;85.33;100157.97;1717498;80;21056;-60
2021/03/21 07:02:19;;;;;;;6.47;5.53;;;;;;;12.31;75.91;100158.48;1711639;80;22587;-61
2021/03/21 07:05:23;;;;;;;8.83;6.40;;;;;;;12.61;67.48;100147.20;1713855;80;21048;-63
2021/03/21 07:08:31;;;;;;;7.00;5.73;;;;;;;12.99;61.78;100144.02;1823505;76;26920;-61
2021/03/21 07:11:22;;;;;;;8.90;7.83;;;;;;;13.05;62.07;100149.25;1768674;79;20926;-62
2021/03/21 07:14:17;;;;;;;9.25;6.90;;;;;;;13.30;60.36;100139.52;1809505;79;22291;-62
2021/03/21 07:17:09;;;;;;;10.27;6.40;;;;;;;13.56;54.26;100141.26;1801991;79;21077;-61
2021/03/21 07:20:13;;;;;;;7.93;6.50;;;;;;;13.42;55.44;100132.64;1744141;79;20923;-60
2021/03/21 07:23:08;;;;;;;7.23;5.73;;;;;;;13.24;54.70;100131.95;1800005;79;20985;-61
2021/03/21 07:26:08;;;;;;;8.27;6.70;;;;;;;12.98;52.64;100132.74;1792663;79;21084;-60
2021/03/21 07:28:53;;;;;;;9.33;5.03;;;;;;;12.77;56.23;100128.53;1772982;79;22222;-60
2021/03/21 07:31:51;;;;;;;9.70;6.77;;;;;;;12.47;53.53;100138.54;1767889;79;21084;-61
2021/03/21 07:34:37;;;;;;;9.73;7.57;;;;;;;12.00;56.36;100123.71;1769423;79;21565;-61
2021/03/21 07:37:45;;;;;;;9.20;7.07;;;;;;;11.65;61.95;100128.95;1766477;79;20993;-62
2021/03/21 07:40:50;;;;;;;8.30;6.27;;;;;;;11.44;60.87;100128.55;1703808;82;21210;-61
2021/03/21 07:43:39;;;;;;;8.33;6.73;;;;;;;11.24;67.66;100127.59;1699283;83;21208;-62
2021/03/21 07:46:41;;;;;;;6.40;5.50;;;;;;;11.55;69.39;100122.77;1685484;82;21259;-62
2021/03/21 07:49:34;;;;;;;7.80;5.23;;;;;;;12.11;69.31;100120.03;1698047;83;21643;-60
2021/03/21 07:52:33;;;;;;;5.37;4.13;;;;;;;12.68;59.21;100117.94;1704833;82;21500;-60
2021/03/21 07:55:17;;;;;;;5.80;4.10;;;;;;;13.15;53.50;100117.45;1677340;83;20986;-61
2021/03/21 07:58:01;;;;;;;6.03;4.03;;;;;;;13.29;46.77;100109.89;1672738;83;21831;-60
2021/03/21 08:00:29;;;;;;;6.40;4.90;;;;;;;13.35;47.15;100110.91;1673724;83;21134;-58
2021/03/21 08:03:24;;;;;;;5.17;3.70;;;;;;;13.41;47.34;100106.17;1676346;83;21027;-61
2021/03/21 08:05:56;;;;;;;5.03;3.20;;;;;;;13.55;44.24;100105.61;1701593;82;22643;-60
2021/03/21 08:08:27;;;;;;;4.90;3.20;;;;;;;13.79;40.95;100100.21;1703079;82;21009;-65
2021/03/21 08:10:59;;;;;;;5.15;3.42;;;;;;;14.03;41.23;100102.62;1705615;82;21375;-59
2021/03/21 08:13:35;;;;;;;4.00;2.97;;;;;;;14.29;40.08;100097.23;1675194;83;21590;-59
2021/03/21 08:16:05;;;;;;;4.70;3.37;;;;;;;14.49;38.96;100098.44;1703301;82;21543;-69
2021/03/21 08:18:35;;;;;;;4.45;3.40;;;;;;;14.54;38.78;100095.97;1703128;82;21533;-61
2021/03/21 08:21:10;;;;;;;3.63;2.60;;;;;;;14.46;38.06;100092.27;1700005;82;21186;-60
2021/03/21 08:23:41;;;;;;;3.50;2.57;;;;;;;14.43;37.32;100095.82;1701851;82;21146;-60
2021/03/21 08:26:12;;;;;;;4.53;3.10;;;;;;;14.30;37.89;100090.97;1703859;82;21251;-66
2021/03/21 08:29:05;;;;;;;3.40;2.57;;;;;;;14.39;38.44;100093.33;1706374;82;21534;-60
2021/03/21 08:31:38;;;;;;;3.97;2.97;;;;;;;14.58;38.10;100085.86;1696364;83;21081;-69
2021/03/21 08:34:31;;;;;;;4.87;3.27;;;;;;;14.77;37.72;100080.98;1699765;83;21243;-59
2021/03/21 08:37:01;;;;;;;5.43;3.10;;;;;;;14.84;37.31;100085.64;1702128;82;21203;-61
2021/03/21 08:39:40;;;;;;;4.20;3.00;;;;;;;14.57;35.80;100081.63;1687188;83;21086;-60
2021/03/21 08:42:31;;;;;;;4.10;2.80;;;;;;;14.09;36.10;100077.69;1673592;83;21496;-61
2021/03/21 08:45:30;;;;;;;3.87;2.90;;;;;;;13.54;35.34;100080.44;1661340;84;21042;-61
2021/03/21 08:48:20;;;;;;;3.30;2.30;;;;;;;12.84;36.38;100080.95;1675253;83;20912;-60
2021/03/21 08:50:52;;;;;;;4.33;2.80;;;;;;;12.45;36.58;100079.61;1673450;83;21464;-61
2021/03/21 08:53:41;;;;;;;3.83;2.60;;;;;;;12.16;37.31;100076.35;1674960;83;21232;-61
2021/03/21 08:56:36;;;;;;;3.23;2.20;;;;;;;12.01;38.82;100075.20;1673942;84;22675;-61
2021/03/21 08:59:40;;;;;;;3.67;2.20;;;;;;;11.91;37.99;100059.89;1656142;83;21066;-68
2021/03/21 09:02:15;;;;;;;5.73;3.77;;;;;;;11.59;39.45;100062.66;1673299;83;21089;-60
2021/03/21 09:04:48;;;;;;;6.20;4.00;;;;;;;11.61;39.78;100067.17;1674691;83;22287;-67
2021/03/21 09:07:26;;;;;;;3.93;2.53;;;;;;;11.87;40.61;100058.67;1654814;83;21255;-60
2021/03/21 09:10:21;;;;;;;110.07;93.83;;;;;;;12.20;40.07;100059.27;1674999;83;20959;-61
2021/03/21 09:12:52;;;;;;;10.73;9.63;;;;;;;12.08;38.06;100060.33;1676029;83;21261;-61
2021/03/21 09:15:26;;;;;;;5.92;3.47;;;;;;;11.61;38.38;100059.34;1678695;83;21644;-62
2021/03/21 09:18:20;;;;;;;5.30;3.77;;;;;;;11.64;40.24;100054.25;1809390;77;22708;-61
2021/03/21 09:21:22;;;;;;;4.63;3.07;;;;;;;11.87;39.89;100046.12;1700856;81;21000;-62
2021/03/21 09:24:03;;;;;;;;;;;;;;;12.08;38.79;100051.69;1745925;80;21203;-62
2021/03/21 09:26:43;;;;;;;22.75;20.50;;;;;;;12.19;38.86;100051.11;1732545;82;20140;-64
2021/03/21 09:29:28;;;;;;;6.87;6.03;;;;;;;12.37;38.75;100048.73;1729016;81;20913;-61
2021/03/21 09:32:04;;;;;;;18.07;14.40;;;;;;;12.56;37.16;100040.59;1728909;81;21004;-62
2021/03/21 09:34:54;;;;;;;4.57;2.30;;;;;;;12.77;36.31;100040.11;1735580;81;20943;-62
2021/03/21 09:37:24;;;;;;;53.17;48.07;;;;;;;12.78;35.16;100035.17;1736092;81;22166;-61
2021/03/21 09:40:13;;;;;;;22.73;20.67;;;;;;;12.57;35.66;100032.24;1728683;82;21063;-61
2021/03/21 09:42:41;;;;;;;153.10;136.80;;;;;;;12.17;36.24;100031.72;1769604;80;22091;-61
2021/03/21 09:45:12;;;;;;;87.27;76.73;;;;;;;11.69;37.62;100029.66;1774566;80;21105;-61
2021/03/21 09:47:54;;;;;;;26.60;23.87;;;;;;;11.20;38.71;100033.24;1742162;80;21213;-60
2021/03/21 09:51:00;;;;;;;17.43;14.67;;;;;;;11.01;40.83;100032.63;1729238;80;22351;-61
2021/03/21 09:54:01;;;;;;;40.03;36.03;;;;;;;10.93;41.44;100026.56;1739869;81;21548;-66
2021/03/21 09:56:46;;;;;;;36.50;31.25;;;;;;;10.71;39.08;100023.69;1735567;81;21514;-61
2021/03/21 09:59:39;;;;;;;102.40;72.43;;;;;;;10.21;39.53;100011.93;1740567;81;21401;-60
2021/03/21 10:02:42;;;;;;;306.37;202.00;;;;;;;9.73;40.48;100021.24;1737728;81;22069;-62
2021/03/21 10:05:42;;;;;;;107.47;81.87;;;;;;;9.17;39.97;100024.87;1743896;81;21644;-60
2021/03/21 10:08:35;;;;;;;115.40;78.10;;;;;;;8.51;41.96;100020.27;1744083;81;21851;-59
2021/03/21 10:11:04;;;;;;;;;;;;;;;8.14;44.63;100030.09;1751558;81;22175;-67
2021/03/21 10:13:41;;;;;;;46.03;31.43;;;;;;;7.94;46.94;100018.05;1735715;81;20418;-63
2021/03/21 10:16:20;;;;;;;9.97;6.47;;;;;;;7.85;48.24;100019.09;1740288;81;21921;-62
2021/03/21 10:18:56;;;;;;;33.23;24.03;;;;;;;7.82;47.23;100010.34;1787138;79;21328;-67
2021/03/21 10:21:29;;;;;;;10.97;6.87;;;;;;;7.69;49.45;100012.22;1783741;79;21393;-61
2021/03/21 10:24:10;;;;;;;52.93;38.43;;;;;;;7.61;50.21;100012.72;1790833;79;21286;-62
2021/03/21 10:26:40;;;;;;;184.30;123.33;;;;;;;7.44;48.61;100011.50;1787613;79;21894;-60
2021/03/21 10:29:36;;;;;;;57.10;46.20;;;;;;;7.23;49.31;100014.64;1743027;79;21352;-59
2021/03/21 10:32:29;;;;;;;18.73;11.23;;;;;;;7.05;52.16;100008.89;1789192;79;21435;-59
2021/03/21 10:34:59;;;;;;;11.53;7.33;;;;;;;6.73;54.65;100006.67;1793331;79;21227;-60
2021/03/21 10:37:48;;;;;;;10.37;7.00;;;;;;;6.41;61.61;100014.48;1776456;79;21359;-62
2021/03/21 10:40:31;;;;;;;10.23;4.97;;;;;;;6.12;69.27;100013.64;1799139;79;21868;-60
2021/03/21 10:43:18;;;;;;;5.77;3.80;;;;;;;5.90;76.71;100010.65;1726980;80;21368;-66
2021/03/21 10:45:53;;;;;;;8.23;5.73;;;;;;;5.85;81.27;100005.16;1716557;82;22058;-61
2021/03/21 10:48:30;;;;;;;7.97;5.55;;;;;;;6.02;84.29;100004.26;1732884;82;21756;-61
2021/03/21 10:51:06;;;;;;;19.63;14.03;;;;;;;6.51;91.56;99991.31;1790261;79;22467;-59
2021/03/21 10:53:40;;;;;;;7.83;4.87;;;;;;;7.40;82.09;99988.68;1789640;79;21448;-59
2021/03/21 10:56:22;;;;;;;9.13;4.90;;;;;;;8.22;62.42;99977.30;1791380;79;21294;-59
2021/03/21 11:02:23;;;;;;;14.97;8.07;;;;;;;9.20;50.28;99972.47;1788134;79;21280;-59
2021/03/21 11:04:59;;;;;;;20.00;11.00;;;;;;;9.12;47.04;99972.58;1793845;79;21092;-60
2021/03/21 11:07:27;;;;;;;43.23;23.50;;;;;;;8.88;45.10;99979.66;1764359;79;21301;-62
2021/03/21 11:10:03;;;;;;;14.23;7.20;;;;;;;8.58;45.46;99983.21;1794292;79;21385;-60
2021/03/21 11:12:38;;;;;;;13.37;8.60;;;;;;;8.23;50.18;99984.93;1808183;79;21335;-61
2021/03/21 11:15:30;;;;;;;16.23;10.33;;;;;;;7.82;55.81;99981.80;1823728;77;23483;-59
2021/03/21 11:18:16;;;;;;;96.90;53.25;;;;;;;7.53;60.25;99974.17;1788225;79;20994;-64
2021/03/21 11:20:45;;;;;;;21.97;12.10;;;;;;;7.36;63.86;99984.81;1793643;79;22222;-65
2021/03/21 11:23:20;;;;;;;12.43;7.70;;;;;;;7.21;64.84;99980.81;1792375;78;21356;-60
2021/03/21 11:25:48;;;;;;;7.53;4.70;;;;;;;7.01;66.24;99974.73;1738633;80;21253;-61
2021/03/21 11:28:39;;;;;;;9.27;5.70;;;;;;;6.89;68.99;99973.93;1727381;80;21440;-62
2021/03/21 11:31:08;;;;;;;8.63;5.55;;;;;;;6.78;70.81;99975.92;1742972;81;21238;-61
2021/03/21 11:33:42;;;;;;;11.03;7.83;;;;;;;6.55;84.10;99984.02;1736777;81;21372;-61
2021/03/21 11:36:43;;;;;;;6.33;4.37;;;;;;;6.23;93.11;99990.03;1761170;80;21309;-60
2021/03/21 11:39:32;;;;;;;7.47;4.27;;;;;;;5.90;99.85;99996.42;1657604;86;21104;-60
2021/03/21 11:42:04;;;;;;;6.03;3.35;;;;;;;5.57;100.00;99989.89;1684154;84;21824;-60
2021/03/21 11:44:32;;;;;;;5.47;3.62;;;;;;;5.35;100.00;99991.27;1685907;84;21090;-60
2021/03/21 11:47:23;;;;;;;7.08;3.80;;;;;;;5.32;100.00;99989.47;1683278;84;21396;-60
2021/03/21 11:49:53;;;;;;;5.50;3.55;;;;;;;5.39;100.00;99989.67;1680600;84;21474;-61
2021/03/21 11:52:22;;;;;;;5.60;3.02;;;;;;;5.56;100.00;99979.69;1685088;84;21636;-61
2021/03/21 11:54:51;;;;;;;5.03;3.08;;;;;;;5.75;100.00;99981.19;1689178;84;21589;-61
2021/03/21 11:57:57;;;;;;;5.30;3.00;;;;;;;5.93;100.00;99974.64;1656356;84;21565;-62
2021/03/21 12:00:33;;;;;;;5.50;3.67;;;;;;;6.07;100.00;99977.41;1683050;84;22332;-59
2021/03/21 12:03:17;;;;;;;6.50;4.25;;;;;;;6.15;100.00;99974.02;1682120;84;22495;-60
2021/03/21 12:06:19;;;;;;;5.83;3.65;;;;;;;6.15;100.00;99968.03;1686529;84;21143;-59
2021/03/21 12:08:48;;;;;;;26.27;16.05;;;;;;;6.06;100.00;99960.27;1681829;84;21204;-62
2021/03/21 12:11:27;;;;;;;264.08;158.12;;;;;;;6.22;100.00;99958.66;1639277;86;21144;-62
2021/03/21 12:13:58;;;;;;;193.22;120.80;;;;;;;6.49;100.00;99953.63;1681383;84;21396;-59
2021/03/21 12:16:39;;;;;;;49.05;34.40;;;;;;;6.84;100.00;99952.41;1660640;84;24261;-59
2021/03/21 12:19:46;;;;;;;;;;;;;;;7.15;100.00;99946.48;1664448;84;21076;-61
2021/03/21 12:22:38;;;;;;;13.13;9.33;;;;;;;7.28;99.90;99941.08;1736923;81;20229;-60
2021/03/21 12:25:28;;;;;;;11.00;6.43;;;;;;;7.36;99.46;99940.23;1734697;81;21486;-62
2021/03/21 12:28:15;;;;;;;6.73;4.40;;;;;;;7.62;97.83;99939.13;1736510;81;21759;-59
2021/03/21 12:30:53;;;;;;;13.47;7.73;;;;;;;7.89;92.02;99936.03;1730105;81;21585;-60
2021/03/21 12:33:35;;;;;;;8.77;5.03;;;;;;;8.12;87.53;99930.02;1731296;81;21379;-61
2021/03/21 12:36:10;;;;;;;;;;;;;;;8.35;78.71;99924.78;1733528;81;21291;-61
2021/03/21 12:38:51;;;;;;;6.63;4.17;;;;;;;8.49;76.03;99926.14;1731803;81;20254;-61
2021/03/21 12:41:36;;;;;;;17.37;13.53;;;;;;;8.46;68.63;99914.80;1723866;81;22119;-60
2021/03/21 12:44:21;;;;;;;7.37;4.80;;;;;;;8.25;66.47;99923.72;1725498;81;21509;-60
2021/03/21 12:46:58;;;;;;;7.07;4.40;;;;;;;7.94;66.07;99929.02;1701872;82;21820;-60
2021/03/21 12:49:49;;;;;;;14.40;10.47;;;;;;;7.59;69.75;99926.01;1672012;84;21409;-61
2021/03/21 12:52:23;;;;;;;5.10;3.30;;;;;;;7.27;68.37;99933.45;1661925;84;21483;-60
2021/03/21 12:54:52;;;;;;;5.53;3.40;;;;;;;6.82;74.58;99941.42;1692382;82;21332;-60
2021/03/21 12:57:20;;;;;;;8.40;5.63;;;;;;;6.39;89.18;99942.13;1695744;82;21633;-59
2021/03/21 12:59:51;;;;;;;6.00;3.30;;;;;;;5.97;100.00;99948.77;1697835;84;21457;-59
2021/03/21 13:02:25;;;;;;;7.00;4.95;;;;;;;5.59;100.00;99934.13;1702713;83;21022;-59
2021/03/21 13:04:53;;;;;;;5.90;4.10;;;;;;;5.28;100.00;99941.16;1674476;84;21038;-61
2021/03/21 13:07:23;;;;;;;5.85;3.83;;;;;;;5.10;100.00;99930.11;1700394;82;22146;-59
2021/03/21 13:09:52;;;;;;;6.30;4.28;;;;;;;5.06;100.00;99932.19;1700044;83;21503;-59
2021/03/21 13:12:21;;;;;;;8.98;7.03;;;;;;;5.12;100.00;99934.16;1704810;81;20959;-63
2021/03/21 13:14:50;;;;;;;6.60;3.90;;;;;;;5.20;100.00;99933.38;1739397;81;21022;-60
2021/03/21 13:17:21;;;;;;;12.93;9.03;;;;;;;5.31;100.00;99923.25;1728069;81;21221;-59
2021/03/21 13:19:50;;;;;;;10.45;6.08;;;;;;;5.50;100.00;99915.22;1729666;81;21373;-60
2021/03/21 13:22:19;;;;;;;14.18;8.38;;;;;;;5.72;100.00;99908.64;1720290;83;21158;-67
2021/03/21 13:24:47;;;;;;;7.10;4.40;;;;;;;6.02;100.00;99899.93;1720989;83;21705;-62
2021/03/21 13:27:15;;;;;;;6.80;4.30;;;;;;;6.31;100.00;99902.83;1720751;83;21227;-60
2021/03/21 13:29:44;;;;;;;13.98;10.48;;;;;;;6.52;100.00;99901.52;1720933;83;21140;-60
2021/03/21 13:32:14;;;;;;;10.43;7.25;;;;;;;6.58;100.00;99895.66;1718703;83;21214;-66
2021/03/21 13:34:44;;;;;;;4.80;3.45;;;;;;;6.60;100.00;99895.02;1722115;83;21071;-60
2021/03/21 13:37:17;;;;;;;5.95;3.58;;;;;;;6.50;100.00;99890.01;1715011;83;21148;-59
2021/03/21 13:39:46;;;;;;;5.58;4.20;;;;;;;6.27;100.00;99888.59;1720305;83;21135;-60
2021/03/21 13:42:15;;;;;;;6.67;4.33;;;;;;;6.03;100.00;99889.92;1718126;83;21658;-60
2021/03/21 13:44:43;;;;;;;5.35;3.20;;;;;;;5.81;100.00;99874.04;1722658;83;21436;-60
2021/03/21 13:47:13;;;;;;;4.83;3.27;;;;;;;5.62;92.13;99880.81;1717787;83;21423;-60
2021/03/21 13:49:41;;;;;;;4.45;2.70;;;;;;;5.42;90.55;99873.84;1721045;83;21033;-61
2021/03/21 13:52:10;;;;;;;5.00;3.00;;;;;;;5.26;88.28;99868.62;1718795;82;21258;-59
2021/03/21 13:54:38;;;;;;;4.40;3.00;;;;;;;5.16;90.56;99873.95;1719984;82;21534;-60
2021/03/21 13:57:08;;;;;;;8.25;5.22;;;;;;;5.18;95.01;99865.53;1719981;82;21206;-59
2021/03/21 13:59:36;;;;;;;6.55;3.90;;;;;;;5.25;94.79;99867.81;1721645;83;21172;-64
2021/03/21 14:02:05;;;;;;;7.45;4.03;;;;;;;5.32;92.39;99857.66;1700995;83;21212;-58
2021/03/21 14:04:34;;;;;;;4.75;3.25;;;;;;;5.33;91.41;99857.98;1716342;83;21231;-60
2021/03/21 14:07:04;;;;;;;5.37;3.92;;;;;;;5.32;93.61;99855.08;1722967;83;21101;-60
2021/03/21 14:09:33;;;;;;;5.30;2.55;;;;;;;5.26;93.19;99860.38;1722928;83;22707;-66
2021/03/21 14:12:02;;;;;;;4.08;2.42;;;;;;;5.18;89.91;99863.44;1722765;82;21239;-61
2021/03/21 14:14:30;;;;;;;4.15;2.67;;;;;;;5.10;91.95;99865.03;1699492;83;20993;-59
2021/03/21 14:16:59;;;;;;;4.60;2.65;;;;;;;5.01;94.58;99859.52;1723827;83;20956;-59
2021/03/21 14:19:28;;;;;;;4.08;2.77;;;;;;;4.94;95.51;99859.82;1716713;83;21046;-59
2021/03/21 14:21:56;;;;;;;5.65;3.35;;;;;;;4.84;95.40;99865.58;1728940;81;22219;-60
2021/03/21 14:24:25;;;;;;;4.90;3.50;;;;;;;4.73;93.44;99863.28;1677542;84;21864;-60
2021/03/21 14:26:55;;;;;;;3.77;2.45;;;;;;;4.63;92.46;99855.66;1691566;84;21362;-59
2021/03/21 14:29:23;;;;;;;12.35;7.70;;;;;;;4.52;94.40;99867.06;1689850;84;21768;-60
2021/03/21 14:31:52;;;;;;;10.23;7.67;;;;;;;4.38;95.60;99868.91;1694916;84;21052;-60
2021/03/21 14:34:22;;;;;;;7.60;5.08;;;;;;;4.23;97.69;99867.84;1673315;85;22122;-61
2021/03/21 14:36:50;;;;;;;5.42;3.60;;;;;;;4.04;100.00;99861.91;1672988;84;21504;-59
2021/03/21 14:39:18;;;;;;;4.87;3.20;;;;;;;3.85;100.00;99861.61;1673512;84;21653;-61
2021/03/21 14:41:46;;;;;;;4.72;3.00;;;;;;;3.73;100.00;99856.36;1671442;85;21033;-64
2021/03/21 14:44:15;;;;;;;4.60;2.75;;;;;;;3.69;100.00;99860.20;1696868;83;21289;-61
2021/03/21 14:46:44;;;;;;;4.58;2.80;;;;;;;3.71;100.00;99845.38;1699550;83;22141;-61
2021/03/21 14:49:12;;;;;;;7.08;4.22;;;;;;;3.77;100.00;99843.98;1670671;85;21612;-62
2021/03/21 14:51:40;;;;;;;18.12;11.75;;;;;;;3.86;100.00;99846.95;1699406;84;21076;-67
2021/03/21 14:54:09;;;;;;;14.98;9.95;;;;;;;3.95;100.00;99844.78;1680669;84;22199;-61
2021/03/21 14:56:37;;;;;;;21.93;11.35;;;;;;;4.00;100.00;99843.03;1702187;84;21563;-62
2021/03/21 14:59:05;;;;;;;11.95;7.30;;;;;;;3.99;100.00;99845.29;1702082;84;22797;-62
2021/03/21 15:01:33;;;;;;;53.75;37.20;;;;;;;3.93;100.00;99850.55;1702701;84;22033;-67
2021/03/21 15:04:01;;;;;;;41.85;27.37;;;;;;;3.84;100.00;99847.59;1677593;84;21603;-60
2021/03/21 15:06:29;;;;;;;24.90;16.75;;;;;;;3.73;100.00;99850.40;1700304;82;21013;-60
2021/03/21 15:08:57;;;;;;;12.45;7.67;;;;;;;3.60;100.00;99851.59;1688959;83;21592;-64
2021/03/21 15:11:26;;;;;;;13.00;9.78;;;;;;;3.48;100.00;99856.61;1692207;84;21234;-62
2021/03/21 15:13:56;;;;;;;9.43;6.45;;;;;;;3.34;100.00;99851.51;1697313;82;21139;-61
2021/03/21 15:16:24;;;;;;;9.38;6.40;;;;;;;3.20;100.00;99856.34;1673595;84;21272;-61
2021/03/21 15:18:54;;;;;;;12.00;7.78;;;;;;;3.05;100.00;99853.45;1670976;84;21128;-61
2021/03/21 15:21:25;;;;;;;10.08;6.97;;;;;;;2.90;100.00;99855.70;1665838;84;21693;-60
2021/03/21 15:23:53;;;;;;;10.75;7.10;;;;;;;2.77;100.00;99850.09;1715769;82;23324;-61
2021/03/21 15:26:23;;;;;;;13.98;8.60;;;;;;;2.62;100.00;99851.02;1669744;84;21250;-61
2021/03/21 15:28:53;;;;;;;11.95;7.78;;;;;;;2.49;100.00;99856.95;1684276;84;21550;-60
2021/03/21 15:31:30;;;;;;;14.10;8.60;;;;;;;2.36;100.00;99853.41;1725387;81;21471;-60
2021/03/21 15:34:01;;;;;;;13.95;8.25;;;;;;;2.21;100.00;99849.66;1726794;82;21212;-66
2021/03/21 15:36:29;;;;;;;18.05;10.48;;;;;;;2.05;100.00;99849.77;1724986;82;22285;-61
2021/03/21 15:38:57;;;;;;;24.27;13.48;;;;;;;1.91;100.00;99845.05;1732399;81;22163;-61
2021/03/21 15:41:30;;;;;;;37.45;19.90;;;;;;;1.78;100.00;99843.21;1734896;81;20999;-61
2021/03/21 15:43:58;;;;;;;26.93;13.90;;;;;;;1.64;100.00;99845.27;1732944;81;21134;-60
2021/03/21 15:46:28;;;;;;;21.60;12.15;;;;;;;1.52;100.00;99846.34;1730739;81;21247;-62
2021/03/21 15:48:57;;;;;;;16.52;11.00;;;;;;;1.40;100.00;99844.83;1727817;81;21375;-60
2021/03/21 15:51:28;;;;;;;18.00;10.95;;;;;;;1.26;100.00;99849.09;1729315;81;21238;-61
2021/03/21 15:53:57;;;;;;;17.07;10.53;;;;;;;1.13;100.00;99845.00;1723000;81;21143;-62
2021/03/21 15:56:26;;;;;;;15.08;9.88;;;;;;;1.02;100.00;99849.44;1724185;81;21403;-62
2021/03/21 15:58:57;;;;;;;13.33;8.73;;;;;;;0.89;100.00;99848.41;1732671;81;21029;-61
2021/03/21 16:01:25;;;;;;;13.90;8.45;;;;;;;0.77;100.00;99853.30;1732954;81;21491;-61
2021/03/21 16:03:55;;;;;;;13.70;8.70;;;;;;;0.66;100.00;99857.56;1734051;82;21215;-64
2021/03/21 16:06:24;;;;;;;14.58;9.00;;;;;;;0.55;100.00;99855.56;1698145;84;21225;-60
2021/03/21 16:08:54;;;;;;;11.55;7.92;;;;;;;0.45;100.00;99863.20;1718546;81;21200;-61
2021/03/21 16:11:23;;;;;;;65.92;35.88;;;;;;;0.33;100.00;99859.91;1681287;84;21634;-62
2021/03/21 16:13:53;;;;;;;95.03;51.08;;;;;;;0.22;100.00;99859.50;1689862;83;21361;-61
2021/03/21 16:16:23;;;;;;;49.55;27.42;;;;;;;0.12;100.00;99861.22;1663007;84;22553;-61
2021/03/21 16:18:53;;;;;;;38.55;21.30;;;;;;;0.02;100.00;99862.90;1687815;84;21614;-61
2021/03/21 16:21:21;;;;;;;78.42;39.08;;;;;;;-0.07;100.00;99872.63;1721559;81;21258;-60
2021/03/21 16:23:52;;;;;;;45.55;23.40;;;;;;;-0.15;100.00;99871.13;1722360;82;21568;-61
2021/03/21 16:26:21;;;;;;;24.32;15.32;;;;;;;-0.20;100.00;99870.22;1704704;82;21456;-61
2021/03/21 16:28:50;;;;;;;28.05;15.45;;;;;;;-0.25;100.00;99870.59;1723196;82;21596;-59
2021/03/21 16:31:18;;;;;;;57.48;29.75;;;;;;;-0.32;100.00;99870.73;1714172;82;21625;-60
2021/03/21 16:33:48;;;;;;;47.10;27.25;;;;;;;-0.39;100.00;99869.59;1715322;82;21057;-61
2021/03/21 16:36:16;;;;;;;34.03;19.98;;;;;;;-0.44;100.00;99866.59;1688029;84;21513;-60
2021/03/21 16:38:45;;;;;;;24.37;14.78;;;;;;;-0.48;100.00;99863.94;1688853;84;21331;-62